createdAt,value
2023-12-31T00:00:11.471Z,16.23
2023-12-31T00:02:39.661Z,14.57
2023-12-31T00:05:07.821Z,15.10
2023-12-31T00:07:35.750Z,16.50
2023-12-31T00:10:04.156Z,12.87
2023-12-31T00:12:32.028Z,18.53
2023-12-31T00:14:59.863Z,21.27
2023-12-31T00:17:27.770Z,32.17
2023-12-31T00:19:55.666Z,18.43
2023-12-31T00:22:23.805Z,17.70
2023-12-31T00:24:55.377Z,12.40
2023-12-31T00:27:23.347Z,13.03
2023-12-31T00:29:51.643Z,16.80
2023-12-31T00:32:19.635Z,15.10
2023-12-31T00:34:47.598Z,12.23
2023-12-31T00:37:15.551Z,13.80
2023-12-31T00:39:43.446Z,14.30
2023-12-31T00:42:11.423Z,12.93
2023-12-31T00:44:39.260Z,23.43
2023-12-31T00:47:07.384Z,18.67
2023-12-31T00:49:35.280Z,21.87
2023-12-31T00:52:03.397Z,24.90
2023-12-31T00:54:31.332Z,34.83
2023-12-31T00:57:00.302Z,19.43
2023-12-31T00:59:28.341Z,25.33
2023-12-31T01:01:56.303Z,38.23
2023-12-31T01:04:24.288Z,21.63
2023-12-31T01:06:52.136Z,22.50
2023-12-31T01:09:19.999Z,21.17
2023-12-31T01:11:48.278Z,23.13
2023-12-31T01:14:16.290Z,19.10
2023-12-31T01:16:44.323Z,16.00
2023-12-31T01:19:12.340Z,19.83
2023-12-31T01:21:40.249Z,23.07
2023-12-31T01:24:08.346Z,27.57
2023-12-31T01:26:36.281Z,42.93
2023-12-31T01:29:04.184Z,38.50
2023-12-31T01:31:32.090Z,27.20
2023-12-31T01:34:00.004Z,23.30
2023-12-31T01:36:28.157Z,21.90
2023-12-31T01:38:56.009Z,24.90
2023-12-31T01:41:24.194Z,19.33
2023-12-31T01:43:52.951Z,22.13
2023-12-31T01:46:30.127Z,26.63
2023-12-31T01:48:58.746Z,22.43
2023-12-31T01:51:28.213Z,23.37
2023-12-31T01:54:03.449Z,33.33
2023-12-31T01:56:33.491Z,32.87
2023-12-31T01:59:03.249Z,26.87
2023-12-31T02:01:32.409Z,19.73
2023-12-31T02:04:00.139Z,19.57
2023-12-31T02:06:28.032Z,24.80
2023-12-31T02:08:55.716Z,19.67
2023-12-31T02:11:24.452Z,20.63
2023-12-31T02:13:51.962Z,16.53
2023-12-31T02:16:19.813Z,17.60
2023-12-31T02:18:47.432Z,21.37
2023-12-31T02:21:15.431Z,23.93
2023-12-31T02:23:43.441Z,19.63
2023-12-31T02:26:13.090Z,22.00
2023-12-31T02:28:41.552Z,17.33
2023-12-31T02:31:09.406Z,20.13
2023-12-31T02:33:37.059Z,21.87
2023-12-31T02:36:05.077Z,24.63
2023-12-31T02:38:32.591Z,27.03
2023-12-31T02:41:00.176Z,25.10
2023-12-31T02:43:27.760Z,24.93
2023-12-31T02:45:55.277Z,26.70
2023-12-31T02:48:22.873Z,21.60
2023-12-31T02:50:50.451Z,18.10
2023-12-31T02:53:18.006Z,16.93
2023-12-31T02:55:45.636Z,16.90
2023-12-31T02:58:13.580Z,16.33
2023-12-31T03:00:42.700Z,15.67
2023-12-31T03:03:10.460Z,15.70
2023-12-31T03:05:38.235Z,14.77
2023-12-31T03:08:06.489Z,15.07
2023-12-31T03:10:34.057Z,16.20
2023-12-31T03:13:02.117Z,15.73
2023-12-31T03:15:29.930Z,16.40
2023-12-31T03:17:57.515Z,15.23
2023-12-31T03:20:25.009Z,15.63
2023-12-31T03:22:52.613Z,20.77
2023-12-31T03:25:20.510Z,16.47
2023-12-31T03:27:48.142Z,18.67
2023-12-31T03:30:15.928Z,15.50
2023-12-31T03:32:43.504Z,18.47
2023-12-31T03:35:11.196Z,13.73
2023-12-31T03:37:38.760Z,14.80
2023-12-31T03:40:07.750Z,13.60
2023-12-31T03:42:35.255Z,13.10
2023-12-31T03:45:03.757Z,13.43
2023-12-31T03:47:31.236Z,12.97
2023-12-31T03:49:58.772Z,13.07
2023-12-31T03:52:26.440Z,13.10
2023-12-31T03:54:54.006Z,13.63
2023-12-31T03:57:21.749Z,13.60
2023-12-31T03:59:49.225Z,14.47
2023-12-31T04:02:19.033Z,15.67
2023-12-31T04:04:46.579Z,13.80
2023-12-31T04:07:14.498Z,16.17
2023-12-31T04:09:42.067Z,16.07
2023-12-31T04:12:10.090Z,14.87
2023-12-31T04:14:37.842Z,18.20
2023-12-31T04:17:05.589Z,15.97
2023-12-31T04:19:33.124Z,21.87
2023-12-31T04:22:01.084Z,20.23
2023-12-31T04:24:28.597Z,19.97
2023-12-31T04:26:58.029Z,21.57
2023-12-31T04:29:25.564Z,19.57
2023-12-31T04:31:55.133Z,18.10
2023-12-31T04:34:23.173Z,16.47
2023-12-31T04:36:50.687Z,16.23
2023-12-31T04:39:18.235Z,15.90
2023-12-31T04:41:45.695Z,16.73
2023-12-31T04:44:13.296Z,16.33
2023-12-31T04:46:41.541Z,16.43
2023-12-31T04:49:10.132Z,17.17
2023-12-31T04:51:37.653Z,17.50
2023-12-31T04:54:05.358Z,18.53
2023-12-31T04:56:33.034Z,20.43
2023-12-31T04:59:00.571Z,21.60
2023-12-31T05:01:33.540Z,23.90
2023-12-31T05:04:03.001Z,22.70
2023-12-31T05:06:30.665Z,23.17
2023-12-31T05:08:58.289Z,23.80
2023-12-31T05:11:29.295Z,23.27
2023-12-31T05:13:58.241Z,22.20
2023-12-31T05:16:26.744Z,22.83
2023-12-31T05:18:55.366Z,20.70
2023-12-31T05:21:23.892Z,19.43
2023-12-31T05:23:51.871Z,19.03
2023-12-31T05:26:19.914Z,19.50
2023-12-31T05:28:47.540Z,19.77
2023-12-31T05:31:15.114Z,19.20
2023-12-31T05:33:43.278Z,20.70
2023-12-31T05:36:12.263Z,20.40
2023-12-31T05:38:39.761Z,20.80
2023-12-31T05:41:07.317Z,21.13
2023-12-31T05:43:34.837Z,20.87
2023-12-31T05:46:02.730Z,19.70
2023-12-31T05:48:30.409Z,19.50
2023-12-31T05:50:58.073Z,19.60
2023-12-31T05:53:25.656Z,18.77
2023-12-31T05:55:53.249Z,18.93
2023-12-31T05:58:20.828Z,18.20
2023-12-31T06:00:48.431Z,17.97
2023-12-31T06:03:16.015Z,22.13
2023-12-31T06:05:43.709Z,28.13
2023-12-31T06:08:11.232Z,25.10
2023-12-31T06:10:38.867Z,23.27
2023-12-31T06:13:06.679Z,21.73
2023-12-31T06:15:34.397Z,22.70
2023-12-31T06:18:01.976Z,20.10
2023-12-31T06:20:29.800Z,19.73
2023-12-31T06:22:57.348Z,20.73
2023-12-31T06:25:25.000Z,19.63
2023-12-31T06:27:52.565Z,21.87
2023-12-31T06:30:21.086Z,24.30
2023-12-31T06:32:48.877Z,22.47
2023-12-31T06:35:16.440Z,23.97
2023-12-31T06:37:44.000Z,22.17
2023-12-31T06:40:12.729Z,24.23
2023-12-31T06:42:40.247Z,19.03
2023-12-31T06:45:08.558Z,19.27
2023-12-31T06:47:36.096Z,20.97
2023-12-31T06:50:03.991Z,21.17
2023-12-31T06:52:31.508Z,19.67
2023-12-31T06:54:58.994Z,19.70
2023-12-31T06:57:26.479Z,19.70
2023-12-31T06:59:54.013Z,27.83
2023-12-31T07:02:22.114Z,27.97
2023-12-31T07:04:49.763Z,33.23
2023-12-31T07:07:17.416Z,36.43
2023-12-31T07:09:45.096Z,32.30
2023-12-31T07:12:12.569Z,36.70
2023-12-31T07:14:40.087Z,30.73
2023-12-31T07:17:07.588Z,28.63
2023-12-31T07:19:35.162Z,33.67
2023-12-31T07:22:02.897Z,33.73
2023-12-31T07:24:30.411Z,31.73
2023-12-31T07:26:58.392Z,33.40
2023-12-31T07:29:27.010Z,23.83
2023-12-31T07:31:55.382Z,20.83
2023-12-31T07:34:23.429Z,41.87
2023-12-31T07:36:51.002Z,20.83
2023-12-31T07:39:18.510Z,21.20
2023-12-31T07:41:49.130Z,21.93
2023-12-31T07:44:17.514Z,23.47
2023-12-31T07:46:45.349Z,20.07
2023-12-31T07:49:13.030Z,23.43
2023-12-31T07:51:40.530Z,21.30
2023-12-31T07:54:08.143Z,22.30
2023-12-31T07:56:35.738Z,22.60
2023-12-31T07:59:04.679Z,23.03
2023-12-31T08:01:32.420Z,23.67
2023-12-31T08:04:00.136Z,33.47
2023-12-31T08:06:28.149Z,27.67
2023-12-31T08:08:55.724Z,35.57
2023-12-31T08:11:23.252Z,30.47
2023-12-31T08:13:50.885Z,19.33
2023-12-31T08:16:20.654Z,19.30
2023-12-31T08:18:48.358Z,17.43
2023-12-31T08:21:15.866Z,17.27
2023-12-31T08:23:46.567Z,21.50
2023-12-31T08:26:15.558Z,20.63
2023-12-31T08:28:43.223Z,21.27
2023-12-31T08:31:15.654Z,20.67
2023-12-31T08:33:44.222Z,21.63
2023-12-31T08:36:11.859Z,20.67
2023-12-31T08:38:39.371Z,19.93
2023-12-31T08:41:07.279Z,19.93
2023-12-31T08:43:38.213Z,20.00
2023-12-31T08:46:06.465Z,18.27
2023-12-31T08:48:34.151Z,19.97
2023-12-31T08:51:01.754Z,18.20
2023-12-31T08:53:29.434Z,20.53
2023-12-31T08:55:57.121Z,35.87
2023-12-31T08:58:24.834Z,21.97
2023-12-31T09:00:54.303Z,26.80
2023-12-31T09:03:22.422Z,21.90
2023-12-31T09:05:50.177Z,19.63
2023-12-31T09:08:17.912Z,19.23
2023-12-31T09:10:46.801Z,17.67
2023-12-31T09:13:14.363Z,17.30
2023-12-31T09:15:43.810Z,15.57
2023-12-31T09:28:44.352Z,14.23
2023-12-31T09:31:12.297Z,14.53
2023-12-31T09:33:39.872Z,12.97
2023-12-31T09:36:07.914Z,13.53
2023-12-31T09:38:35.469Z,15.90
2023-12-31T09:41:07.284Z,15.07
2023-12-31T09:43:38.511Z,14.10
2023-12-31T09:46:07.611Z,13.80
2023-12-31T09:48:36.850Z,14.70
2023-12-31T09:51:04.688Z,18.17
2023-12-31T09:53:34.215Z,17.73
2023-12-31T09:56:05.386Z,18.10
2023-12-31T09:58:35.426Z,18.03
2023-12-31T10:01:03.086Z,17.23
2023-12-31T10:03:32.255Z,18.07
2023-12-31T10:06:00.909Z,17.90
2023-12-31T10:08:28.757Z,16.63
2023-12-31T10:10:57.655Z,21.17
2023-12-31T10:13:25.173Z,18.97
2023-12-31T10:15:53.148Z,28.20
2023-12-31T10:18:20.985Z,21.63
2023-12-31T10:20:48.628Z,18.07
2023-12-31T10:23:16.116Z,20.40
2023-12-31T10:25:44.099Z,21.30
2023-12-31T10:28:11.683Z,22.97
2023-12-31T10:30:40.407Z,21.27
2023-12-31T10:33:15.424Z,18.23
2023-12-31T10:35:44.793Z,18.27
2023-12-31T10:38:12.424Z,16.00
2023-12-31T10:40:42.229Z,16.33
2023-12-31T10:43:12.079Z,15.47
2023-12-31T10:45:40.570Z,14.40
2023-12-31T10:48:09.145Z,14.90
2023-12-31T10:50:40.937Z,18.37
2023-12-31T10:53:13.251Z,15.50
2023-12-31T10:55:43.180Z,14.70
2023-12-31T10:58:11.244Z,15.70
2023-12-31T11:00:39.066Z,15.87
2023-12-31T11:03:11.378Z,15.07
2023-12-31T11:05:39.773Z,18.40
2023-12-31T11:08:09.785Z,17.83
2023-12-31T11:10:37.374Z,20.67
2023-12-31T11:13:05.515Z,18.07
2023-12-31T11:15:33.791Z,26.40
2023-12-31T11:18:22.521Z,21.07
2023-12-31T11:21:43.012Z,21.10
2023-12-31T11:24:26.390Z,16.23
2023-12-31T11:27:18.176Z,14.10
2023-12-31T11:29:47.494Z,15.63
2023-12-31T11:32:20.445Z,15.50
2023-12-31T11:34:54.783Z,12.07
2023-12-31T11:37:25.567Z,10.27
2023-12-31T11:39:56.802Z,8.83
2023-12-31T11:42:26.724Z,8.63
2023-12-31T11:44:54.459Z,9.43
2023-12-31T11:47:24.405Z,8.70
2023-12-31T11:50:19.199Z,7.80
2023-12-31T11:52:50.623Z,8.17
2023-12-31T11:55:19.674Z,9.13
2023-12-31T11:57:52.083Z,8.73
2023-12-31T12:00:20.638Z,8.50
2023-12-31T12:02:52.508Z,8.93
2023-12-31T12:05:20.777Z,8.97
2023-12-31T12:07:48.382Z,17.53
2023-12-31T12:10:17.042Z,14.43
2023-12-31T12:12:44.647Z,18.03
2023-12-31T12:15:12.234Z,12.27
2023-12-31T12:17:39.869Z,13.90
2023-12-31T12:20:11.117Z,11.60
2023-12-31T12:22:38.833Z,11.00
2023-12-31T12:25:07.240Z,17.27
2023-12-31T12:27:38.633Z,13.53
2023-12-31T12:30:07.668Z,15.03
2023-12-31T12:32:36.443Z,15.83
2023-12-31T12:35:05.036Z,17.70
2023-12-31T12:37:34.317Z,14.27
2023-12-31T12:40:06.573Z,11.73
2023-12-31T12:42:35.510Z,12.23
2023-12-31T12:45:03.790Z,9.90
2023-12-31T12:47:31.385Z,10.53
2023-12-31T12:49:59.034Z,13.07
2023-12-31T12:52:26.750Z,10.87
2023-12-31T12:54:54.241Z,10.90
2023-12-31T12:57:21.728Z,14.47
2023-12-31T12:59:49.216Z,11.27
2023-12-31T13:02:16.699Z,9.57
2023-12-31T13:04:44.245Z,9.53
2023-12-31T13:07:11.763Z,8.07
2023-12-31T13:09:40.649Z,10.80
2023-12-31T13:12:08.535Z,10.30
2023-12-31T13:14:36.716Z,12.43
2023-12-31T13:17:04.620Z,12.07
2023-12-31T13:19:33.392Z,14.40
2023-12-31T13:22:02.034Z,16.13
2023-12-31T13:24:30.421Z,12.33
2023-12-31T13:26:57.941Z,11.97
2023-12-31T13:29:25.516Z,11.70
2023-12-31T13:31:53.126Z,14.30
2023-12-31T13:34:20.764Z,19.27
2023-12-31T13:36:52.510Z,14.07
2023-12-31T13:39:20.105Z,15.37
2023-12-31T13:41:47.634Z,18.57
2023-12-31T13:44:15.252Z,19.70
2023-12-31T13:46:42.788Z,19.23
2023-12-31T13:49:10.458Z,16.47
2023-12-31T13:51:38.376Z,16.93
2023-12-31T13:54:06.004Z,21.67
2023-12-31T13:56:33.567Z,20.50
2023-12-31T13:59:01.157Z,23.07
2023-12-31T14:01:28.858Z,27.77
2023-12-31T14:03:56.456Z,27.83
2023-12-31T14:06:24.008Z,29.43
2023-12-31T14:08:51.482Z,39.13
2023-12-31T14:11:20.720Z,38.47
2023-12-31T14:13:48.210Z,43.27
2023-12-31T14:16:15.765Z,38.23
2023-12-31T14:18:43.378Z,36.37
2023-12-31T14:21:10.984Z,41.70
2023-12-31T14:23:38.534Z,52.07
2023-12-31T14:26:06.218Z,57.30
2023-12-31T14:28:33.850Z,41.23
2023-12-31T14:31:01.466Z,26.43
2023-12-31T14:33:29.220Z,37.17
2023-12-31T14:35:56.782Z,29.40
2023-12-31T14:38:24.302Z,28.67
2023-12-31T14:40:52.122Z,31.73
2023-12-31T14:43:19.792Z,28.50
2023-12-31T14:45:48.052Z,28.97
2023-12-31T14:48:16.565Z,31.40
2023-12-31T14:50:44.165Z,30.67
2023-12-31T14:53:11.903Z,30.30
2023-12-31T14:55:39.460Z,28.47
2023-12-31T14:58:07.421Z,27.87
2023-12-31T15:00:34.979Z,28.37
2023-12-31T15:03:02.779Z,32.30
2023-12-31T15:05:31.961Z,26.40
2023-12-31T15:08:00.573Z,30.20
2023-12-31T15:10:28.145Z,35.60
2023-12-31T15:12:56.826Z,41.57
2023-12-31T15:15:24.515Z,36.47
2023-12-31T15:17:52.103Z,37.80
2023-12-31T15:20:22.054Z,37.23
2023-12-31T15:22:50.972Z,37.23
2023-12-31T15:25:18.510Z,35.47
2023-12-31T15:27:46.029Z,33.03
2023-12-31T15:30:14.417Z,28.97
2023-12-31T15:32:42.015Z,43.40
2023-12-31T15:35:11.680Z,37.97
2023-12-31T15:37:47.052Z,33.43
2023-12-31T15:40:18.973Z,29.57
2023-12-31T15:42:46.527Z,27.50
2023-12-31T15:45:14.035Z,27.40
2023-12-31T15:47:41.504Z,27.63
2023-12-31T15:50:09.992Z,30.03
2023-12-31T15:52:37.585Z,31.73
2023-12-31T15:55:07.512Z,30.50
2023-12-31T15:57:35.095Z,30.33
2023-12-31T16:00:03.612Z,33.27
2023-12-31T16:02:31.287Z,40.53
2023-12-31T16:04:59.028Z,43.20
2023-12-31T16:07:26.572Z,46.40
2023-12-31T16:09:54.506Z,40.60
2023-12-31T16:12:22.168Z,44.93
2023-12-31T16:14:49.642Z,38.27
2023-12-31T16:17:17.166Z,41.60
2023-12-31T16:19:44.920Z,39.50
2023-12-31T16:22:12.448Z,36.17
2023-12-31T16:24:40.299Z,37.03
2023-12-31T16:27:07.835Z,39.00
2023-12-31T16:29:38.513Z,39.00
2023-12-31T16:32:06.860Z,36.83
2023-12-31T16:34:34.914Z,40.57
2023-12-31T16:37:02.434Z,42.90
2023-12-31T16:39:29.914Z,52.10
2023-12-31T16:41:57.537Z,40.70
2023-12-31T16:44:25.073Z,53.33
2023-12-31T16:46:55.777Z,44.57
2023-12-31T16:49:23.508Z,37.80
2023-12-31T16:51:51.005Z,35.27
2023-12-31T16:54:19.208Z,43.77
2023-12-31T16:56:46.686Z,47.80
2023-12-31T16:59:14.171Z,41.00
2023-12-31T17:01:41.749Z,50.77
2023-12-31T17:04:09.275Z,56.07
2023-12-31T17:06:38.154Z,55.10
2023-12-31T17:09:05.655Z,76.07
2023-12-31T17:11:35.274Z,72.23
2023-12-31T17:14:04.246Z,52.67
2023-12-31T17:16:31.897Z,61.40
2023-12-31T17:18:59.895Z,69.47
2023-12-31T17:21:27.597Z,68.50
2023-12-31T17:23:55.131Z,52.27
2023-12-31T17:26:22.721Z,48.13
2023-12-31T17:28:50.301Z,46.97
2023-12-31T17:31:17.841Z,44.87
2023-12-31T17:33:45.628Z,44.97
2023-12-31T17:36:16.193Z,40.40
2023-12-31T17:38:44.546Z,39.90
2023-12-31T17:41:13.074Z,39.77
2023-12-31T17:43:40.664Z,43.13
2023-12-31T17:46:08.363Z,41.83
2023-12-31T17:48:35.967Z,43.10
2023-12-31T17:51:04.349Z,39.03
2023-12-31T17:53:34.551Z,36.50
2023-12-31T17:56:02.459Z,38.77
2023-12-31T17:58:30.009Z,36.77
2023-12-31T18:00:57.821Z,37.70
2023-12-31T18:03:25.421Z,37.37
2023-12-31T18:05:53.023Z,36.77
2023-12-31T18:08:20.522Z,39.47
2023-12-31T18:10:49.515Z,41.40
2023-12-31T18:13:17.132Z,42.80
2023-12-31T18:15:45.062Z,46.30
2023-12-31T18:18:12.779Z,45.30
2023-12-31T18:20:40.354Z,42.17
2023-12-31T18:23:09.788Z,37.57
2023-12-31T18:25:37.365Z,35.80
2023-12-31T18:28:05.548Z,40.67
2023-12-31T18:33:07.326Z,40.23
2023-12-31T18:35:37.229Z,38.67
2023-12-31T18:38:10.358Z,35.90
2023-12-31T18:40:40.601Z,36.20
2023-12-31T18:43:08.175Z,34.80
2023-12-31T18:45:35.744Z,36.50
2023-12-31T18:48:03.809Z,40.60
2023-12-31T18:50:31.798Z,38.40
2023-12-31T18:52:59.408Z,41.10
2023-12-31T18:55:27.640Z,38.83
2023-12-31T18:57:56.370Z,39.87
2023-12-31T19:00:24.103Z,38.60
2023-12-31T19:02:51.597Z,53.90
2023-12-31T19:05:19.366Z,55.40
2023-12-31T19:07:46.961Z,67.77
2023-12-31T19:10:14.485Z,72.37
2023-12-31T19:12:42.063Z,51.37
2023-12-31T19:15:10.397Z,46.00
2023-12-31T19:17:40.220Z,44.27
2023-12-31T19:20:10.051Z,45.20
2023-12-31T19:22:37.948Z,42.70
2023-12-31T19:25:07.009Z,57.37
2023-12-31T19:27:34.633Z,53.60
2023-12-31T19:30:02.550Z,41.97
2023-12-31T19:32:30.106Z,39.93
2023-12-31T19:34:58.011Z,41.00
2023-12-31T19:37:25.624Z,40.43
2023-12-31T19:39:53.148Z,42.20
2023-12-31T19:42:20.665Z,47.30
2023-12-31T19:44:48.225Z,102.13
2023-12-31T19:47:16.467Z,41.10
2023-12-31T19:49:51.984Z,37.63
2023-12-31T19:52:28.209Z,37.47
2023-12-31T19:54:56.266Z,36.40
2023-12-31T19:57:23.775Z,35.47
2023-12-31T19:59:51.645Z,36.57
2023-12-31T20:02:20.942Z,36.17
2023-12-31T20:04:48.574Z,40.50
2023-12-31T20:07:16.394Z,44.03
2023-12-31T20:09:44.696Z,38.43
2023-12-31T20:12:12.233Z,34.70
2023-12-31T20:14:39.792Z,37.30
2023-12-31T20:17:07.414Z,34.23
2023-12-31T20:19:35.053Z,44.27
2023-12-31T20:22:02.742Z,42.87
2023-12-31T20:24:30.357Z,46.20
2023-12-31T20:26:58.117Z,42.13
2023-12-31T20:29:25.641Z,39.67
2023-12-31T20:31:53.790Z,42.20
2023-12-31T20:34:21.462Z,39.67
2023-12-31T20:36:50.684Z,37.03
2023-12-31T20:39:18.185Z,37.97
2023-12-31T20:41:48.924Z,35.63
2023-12-31T20:44:16.471Z,34.83
2023-12-31T20:46:44.067Z,35.23
2023-12-31T20:49:11.681Z,37.07
2023-12-31T20:51:39.237Z,36.23
2023-12-31T20:54:06.963Z,34.23
2023-12-31T20:56:34.511Z,34.60
2023-12-31T20:59:04.053Z,34.50
2023-12-31T21:01:32.424Z,35.90
2023-12-31T21:04:00.188Z,38.27
2023-12-31T21:06:27.780Z,39.20
2023-12-31T21:08:55.263Z,37.23
2023-12-31T21:11:22.728Z,38.33
2023-12-31T21:13:50.239Z,35.67
2023-12-31T21:16:18.116Z,32.33
2023-12-31T21:18:45.674Z,32.50
2023-12-31T21:21:13.217Z,32.70
2023-12-31T21:23:40.797Z,34.97
2023-12-31T21:26:08.336Z,32.73
2023-12-31T21:28:35.908Z,39.60
2023-12-31T21:31:03.761Z,41.53
2023-12-31T21:33:31.540Z,51.60
2023-12-31T21:35:59.131Z,52.60
2023-12-31T21:38:26.616Z,44.70
2023-12-31T21:40:54.153Z,45.87
2023-12-31T21:43:21.745Z,48.63
2023-12-31T21:45:49.410Z,45.23
2023-12-31T21:48:16.901Z,43.63
2023-12-31T21:50:44.548Z,28.97
2023-12-31T21:53:12.153Z,28.20
2023-12-31T21:55:50.124Z,27.87
2023-12-31T21:58:27.272Z,26.77
2023-12-31T22:00:59.312Z,26.63
2023-12-31T22:03:27.898Z,42.00
2023-12-31T22:05:55.792Z,48.53
2023-12-31T22:08:23.429Z,46.63
2023-12-31T22:10:50.973Z,38.57
2023-12-31T22:13:19.994Z,36.13
2023-12-31T22:15:47.549Z,53.80
2023-12-31T22:18:15.301Z,34.63
2023-12-31T22:20:44.702Z,30.80
2023-12-31T22:23:12.259Z,30.83
2023-12-31T22:25:39.791Z,32.13
2023-12-31T22:28:08.542Z,31.30
2023-12-31T22:30:36.162Z,31.27
2023-12-31T22:33:04.035Z,28.53
2023-12-31T22:35:31.674Z,30.30
2023-12-31T22:37:59.300Z,32.53
2023-12-31T22:40:31.955Z,37.33
2023-12-31T22:42:59.536Z,37.73
2023-12-31T22:45:27.201Z,32.47
2023-12-31T22:47:54.679Z,36.03
2023-12-31T22:50:22.395Z,50.87
2023-12-31T22:52:49.949Z,40.50
2023-12-31T22:55:17.533Z,42.13
2023-12-31T22:57:45.089Z,38.90
2023-12-31T23:00:16.561Z,41.93
2023-12-31T23:02:45.429Z,43.47
2023-12-31T23:05:13.135Z,44.47
2023-12-31T23:07:40.751Z,40.00
2023-12-31T23:10:09.045Z,42.50
2023-12-31T23:12:36.561Z,42.03
2023-12-31T23:15:04.706Z,41.00
2023-12-31T23:17:32.299Z,47.77
2023-12-31T23:19:59.902Z,46.67
2023-12-31T23:22:27.466Z,42.00
2023-12-31T23:24:56.250Z,36.57
2023-12-31T23:27:23.854Z,40.70
2023-12-31T23:29:51.404Z,39.13
2023-12-31T23:32:18.972Z,40.53
2023-12-31T23:34:46.532Z,38.43
2023-12-31T23:37:14.435Z,32.53
2023-12-31T23:39:41.934Z,29.27
2023-12-31T23:42:09.520Z,29.07
2023-12-31T23:44:37.284Z,29.30
2023-12-31T23:47:05.200Z,28.30
2023-12-31T23:49:32.773Z,29.60
2023-12-31T23:52:00.428Z,31.53
2023-12-31T23:54:27.999Z,32.53
2023-12-31T23:56:55.635Z,34.47
2023-12-31T23:59:23.112Z,34.27
